Tiempo atmosférico en la estación meteorológica de Menorca Aeropuerto, Illes Balears (91 m.)



Fecha
DESCASC
Temp. máxima en grados centígrados (hora)
DESCASC
Temp. mínima en grados centígrados (hora)
DESCASC
Temp. media en grados centígrados
DESCASC
Racha de viento máxima en m/sg (hora)
DESCASC
Velocidad máxima media en intervalos de 10 minutos(hora)
DESCASC
Precipitaciones diarias en mm
DESCASC
Precipitaciones de 00:00 a 06:00 en mm
DESCASC
Precipitaciones de 06:00 a 12:00 en mm
DESCASC
Precipitaciones de 12:00 a 18:00 en mm
DESCASC
Precipitaciones de 18:00 a 24:00 en mm
DESCASC

Gráficas

Temp. máximas Temp. mínimas Temp. medias Precipitaciones Rachas de viento máximas Velocidades máximas media en intervalos de 10 minutos

Datos horarios

Fecha y hora oficial Temperatura (ºC) Velocidad del viento (km/h) Dirección del viento Racha (km/h) Dirección de racha Precipitación (mm) Presión (hPa) Tendencia (hPa) Humedad (%)
2020-04-07 23:00:00 12.1 8 Nordeste 11 Nordeste 0 1016.5 0.7 81
2020-04-07 22:00:00 12.9 9 Norte -- -- 0 1016.6 1 79
2020-04-07 21:00:00 13.5 9 Norte 13 Norte 0 1016.1 0.5 74
2020-04-07 20:00:00 15.2 9 Nordeste 18 Nordeste 0 1015.8 0 62
2020-04-07 19:00:00 16.7 14 Nordeste 21 Nordeste 0 1015.6 -0.2 48
2020-04-07 18:00:00 18 12 Nordeste 24 Este 0 1015.6 -0.7 38
2020-04-07 17:00:00 19.1 12 Nordeste 26 Este 0 1015.8 -0.9 41
2020-04-07 16:00:00 19.6 12 Este 22 Este 0 1015.8 -1 37
2020-04-07 15:00:00 19.2 14 Este 24 Este 0 1016.3 -0.8 40
2020-04-07 14:00:00 18.8 11 Este 22 Este 0 1016.7 -0.5 41
2020-04-07 13:00:00 18.6 14 Este 24 Este 0 1016.8 0.1 41
2020-04-07 12:00:00 17.7 14 Este 26 Este 0 1017.1 0.8 54
2020-04-07 11:00:00 16.9 11 Nordeste 18 Este 0 1017.2 1.2 52
2020-04-07 10:00:00 16.2 13 Este 21 Nordeste 0 1016.7 1.1 56
2020-04-07 09:00:00 15.1 9 Nordeste 13 Nordeste 0 1016.3 0.8 73
2020-04-07 08:00:00 11.6 11 Nordeste -- -- 0 1016 0.4 87
2020-04-07 07:00:00 10.8 13 Nordeste 13 Nordeste 0 1015.6 0 93
2020-04-07 06:00:00 -- 9 Nordeste -- -- 0 1015.5 -0.2 --
2020-04-07 05:00:00 -- -- -- -- -- 0 1015.6 -0.5 --
2020-04-07 04:00:00 9 5 Nordeste 11 Nordeste 0 1015.6 -0.5 90
2020-04-07 03:00:00 9.3 10 Nordeste -- -- 0 1015.7 -0.3 92
2020-04-07 02:00:00 8.2 4 Nordeste 5 Nordeste 0 1016.1 0.3 92
2020-04-07 01:00:00 8.8 3 Norte 5 Norte 0 1016.1 0.4 90
2020-04-07 00:00:00 9.9 5 Nordeste 9 Este 0 1016 0.9 83
2020-04-06 23:00:00 11.8 10 Este 11 Este 0 1015.8 1.1 82
2020-04-06 22:00:00 12.1 9 Este 13 Este 0 1015.7 0.9 80
2020-04-06 21:00:00 12.8 -- -- -- -- 0 1015.1 0.4 74
2020-04-06 20:00:00 14.9 13 Este 22 Este 0 1014.7 0.3 61
2020-04-06 19:00:00 17.3 12 Este 18 Este 0 1014.8 0.4 47
2020-04-06 18:00:00 19 7 Sudeste 24 Sudeste 0 1014.7 0 39
2020-04-06 17:00:00 19.4 11 Sur 21 Sur 0 1014.4 -0.1 25
2020-04-06 16:00:00 19.8 9 Sur 21 Sur 0 1014.4 -0.1 23
2020-04-06 15:00:00 19.7 12 Sur 22 Sur 0 1014.7 0.4 26
2020-04-06 14:00:00 19.6 11 Sudeste 21 Sudeste 0 1014.5 0.5 29
2020-04-06 13:00:00 19.4 10 Este 24 Este 0 1014.5 1 32
2020-04-06 12:00:00 19.2 9 Este 21 Nordeste 0 1014.3 1.5 33
2020-04-06 11:00:00 18.1 12 Este 18 Norte 0 1014 1.8 43
2020-04-06 10:00:00 16.3 10 Nordeste 13 Nordeste 0 1013.5 1.8 59
2020-04-06 09:00:00 14 9 Nordeste 11 Nordeste 0 1012.8 1.4 85
2020-04-06 08:00:00 -- -- -- -- -- 0 1012.2 0.9 --
2020-04-06 07:00:00 -- -- -- -- -- 0 1011.7 0.4 --
2020-04-06 06:00:00 7.4 -- -- -- -- 0 1011.4 -0.2 93
2020-04-06 05:00:00 8.3 10 Este -- -- 0 1011.3 -0.4 88
2020-04-06 04:00:00 -- -- -- -- -- 0 1011.3 0 --
2020-04-06 03:00:00 -- -- -- -- -- 0 1011.6 0.2 --
2020-04-06 02:00:00 9.5 8 Nordeste 15 Nordeste 0 1011.7 0.6 85
2020-04-06 01:00:00 10.9 13 Nordeste 15 Nordeste 0 1011.3 0.3 85
2020-04-06 00:00:00 11.6 12 Este 13 Este 0 1011.4 1 83
2020-04-05 23:00:00 12 11 Nordeste -- -- 0 1011.1 -- 81
2020-04-05 22:00:00 10.5 9 Nordeste 13 Norte 0 1011 1.3 84
2020-04-05 21:00:00 13.5 8 Nordeste 9 Nordeste 0 1010.4 0.6 65
2020-04-05 20:00:00 15.2 5 Este 13 Este 0 -- -- 44
2020-04-05 19:00:00 17 10 Este 18 Este 0 1009.7 -0.4 43
2020-04-05 18:00:00 16.9 13 Sudeste 18 Sudeste 0 1009.8 -0.7 45
2020-04-05 17:00:00 18.8 12 Este 24 Este 0 1010 -0.8 38
2020-04-05 16:00:00 19 15 Sudeste 26 Sudeste 0 1010.1 -1.2 38
2020-04-05 15:00:00 19.5 8 Sudeste 24 Sur 0 1010.5 -1 30
2020-04-05 14:00:00 18.8 13 Este 24 Este 0 1010.8 -0.6 33
2020-04-05 13:00:00 17.9 13 Este 24 Este 0 1011.3 0.2 47
2020-04-05 12:00:00 17.6 13 Este 22 Norte 0 1011.5 0.7 50
2020-04-05 11:00:00 16.6 13 Este 22 Este 0 1011.4 1 55
2020-04-05 10:00:00 15 12 Este 18 Este 0 1011.1 1.3 72
2020-04-05 09:00:00 12.7 10 Nordeste 15 Nordeste 0 1010.8 1 92
2020-04-05 08:00:00 8.5 12 Nordeste 15 Nordeste 0 1010.4 0.6 97
2020-04-05 07:00:00 7.8 13 Nordeste 15 Nordeste 0 1009.8 -0.4 98
2020-04-05 06:00:00 4.9 0 Calma 9 Nordeste 0 1009.8 -0.8 96
2020-04-05 05:00:00 5.5 0 Calma 4 Este 0 1009.8 -1.1 96
2020-04-05 04:00:00 5.7 0 Calma 4 Este 0 1010.2 -0.9 96
2020-04-05 03:00:00 6.5 0 Calma 11 Nordeste 0 1010.6 -0.7 95
2020-04-05 02:00:00 7.7 9 Nordeste 11 Nordeste 0 1010.9 -0.2 94
2020-04-05 01:00:00 -- 9 Nordeste 11 Nordeste 0 1011.1 0.3 --
2020-04-05 00:00:00 7.8 8 Nordeste -- -- 0 1011.3 1 93
2020-04-04 23:00:00 -- -- -- -- -- 0 1011.1 1.2 --
2020-04-04 22:00:00 -- 9 Norte -- -- 0 1010.8 1.1 --
2020-04-04 21:00:00 11.4 12 Nordeste 15 Nordeste 0 1010.3 0.6 82
2020-04-04 20:00:00 14.1 13 Norte 17 Norte 0 1009.9 0.3 69
2020-04-04 19:00:00 16.3 12 Norte 18 Nordeste 0 1009.7 -0.3 52
2020-04-04 18:00:00 17.3 12 Norte 17 Nordeste 0 1009.7 -0.3 46
2020-04-04 17:00:00 17.3 8 Norte 26 Sudoeste 0 1009.6 -0.6 55
2020-04-04 16:00:00 17.8 16 Sudoeste 24 Sudoeste 0 1010 -0.4 57
2020-04-04 15:00:00 16.8 12 Sur 22 Sur 0 1010 -0.5 59
2020-04-04 14:00:00 18.5 11 Sudoeste 24 Nordeste 0 1010.2 -0.2 48
2020-04-04 13:00:00 17.9 10 Norte 24 Norte 0 1010.4 0.6 45
2020-04-04 12:00:00 17.2 14 Norte 26 Norte 0 1010.5 1.2 52
2020-04-04 11:00:00 16.2 17 Norte 26 Nordeste 0 1010.4 1.6 57
2020-04-04 10:00:00 15 18 Norte 26 Norte 0 1009.8 1.4 68
2020-04-04 09:00:00 12.4 6 Noroeste 13 Norte 0 1009.3 1.4 85
2020-04-04 08:00:00 9.3 13 Norte 15 Norte 0 1008.8 0.9 91
2020-04-04 07:00:00 8.2 8 Noroeste 15 Norte 0 1008.4 0.6 93
2020-04-04 06:00:00 8.3 9 Norte 11 Noroeste 0 1007.9 0.1 92
2020-04-04 05:00:00 8.5 9 Noroeste 15 Noroeste 0 1007.9 0.2 90
2020-04-04 04:00:00 9 10 Noroeste 22 Noroeste 0 1007.8 0.1 85
2020-04-04 03:00:00 9.7 13 Noroeste 21 Noroeste 0 1007.8 0.2 82
2020-04-04 02:00:00 9.6 12 Noroeste 21 Noroeste 0 1007.7 0.3 78
2020-04-04 01:00:00 9.3 11 Noroeste 18 Noroeste 0 1007.7 0.6 79
2020-04-04 00:00:00 9.1 9 Noroeste 15 Noroeste 0 1007.6 1.2 81
2020-04-03 23:00:00 9.1 11 Noroeste 15 Noroeste 0 1007.4 1.5 82
2020-04-03 22:00:00 9.8 12 Norte 18 Norte 0 1007.1 1.6 80
2020-04-03 21:00:00 10.2 13 Norte 26 Norte 0 1006.4 1.3 77
2020-04-03 20:00:00 12.5 21 Norte 32 Norte 0 1005.9 1 67
2020-04-03 19:00:00 14.6 23 Norte 32 Norte 0 1005.5 0.7 56
2020-04-03 18:00:00 15.6 23 Norte 39 Norte 0 1005.1 0.2 56
2020-04-03 17:00:00 15.8 27 Nordeste 39 Nordeste 0 1004.9 0.2 54
2020-04-03 16:00:00 16.1 30 Nordeste 45 Norte 0 1004.8 0.2 54
2020-04-03 15:00:00 16 33 Norte 45 Norte 0 1004.9 0.7 63
2020-04-03 14:00:00 16.1 33 Norte 46 Norte 0 1004.7 1.1 63
2020-04-03 13:00:00 15.3 34 Norte 46 Norte 0 1004.6 1.8 64
2020-04-03 12:00:00 14.3 33 Norte 46 Norte 0 1004.2 2.3 71
2020-04-03 11:00:00 14.2 32 Nordeste 48 Norte 0 1003.6 2.3 74
2020-04-03 10:00:00 13.4 31 Norte 46 Nordeste 0 1002.8 2.1 83
2020-04-03 09:00:00 11.8 33 Nordeste 45 Norte 0 1001.9 1.7 86
2020-04-03 08:00:00 10.8 33 Norte 54 Norte 0.1 1001.3 1.5 89
2020-04-03 07:00:00 11.5 39 Nordeste 54 Norte 0.8 1000.7 1.2 96
2020-04-03 06:00:00 12.4 32 Norte 45 Norte 0.2 1000.2 0.6 94
2020-04-03 05:00:00 12.3 21 Norte 30 Norte 0 999.8 -0.1 94
2020-04-03 04:00:00 12 19 Norte 32 Norte 0.1 999.5 -0.6 94
2020-04-03 03:00:00 12.3 19 Nordeste 30 Norte 0.3 999.6 -0.5 93
2020-04-03 02:00:00 11.9 22 Nordeste 30 Norte 0 999.9 -0.3 94
2020-04-03 01:00:00 11.4 17 Norte 22 Norte 0 1000.1 0.1 97
2020-04-03 00:00:00 11.8 17 Norte 26 Norte 0.3 1000.1 0.6 96
2020-04-02 23:00:00 12.2 16 Norte 24 Norte 0.3 1000.2 1.2 95
2020-04-02 22:00:00 12.6 11 Norte 17 Norte 0 1000 1.1 86
2020-04-02 21:00:00 12.8 12 Nordeste 17 Norte 0 999.5 0.9 86
2020-04-02 20:00:00 13.6 11 Nordeste 21 Nordeste 0 999 0.4 81
2020-04-02 19:00:00 14.2 13 Nordeste 18 Nordeste 0 998.9 0.5 73
2020-04-02 18:00:00 15.1 12 Este 21 Este 0 998.6 -0.1 69
2020-04-02 17:00:00 15.8 13 Este 21 Este 0 998.6 -0.3 67
2020-04-02 16:00:00 17.1 8 Nordeste 21 Este 0 998.4 -1 61
2020-04-02 15:00:00 15.7 13 Este 18 Este 0 998.7 -0.7 70
2020-04-02 14:00:00 14.4 13 Este 21 Este 0 998.9 -0.4 79
2020-04-02 13:00:00 15.1 15 Este 24 Sur 0 999.4 0.3 83
2020-04-02 12:00:00 14.3 15 Sur 30 Sur 0 999.4 0.8 90
2020-04-02 11:00:00 13.3 15 Sudeste 26 Sudeste 0 999.3 1 96
2020-04-02 10:00:00 13.7 5 Este 9 Este 0 999.1 0.4 97
2020-04-02 09:00:00 13.5 3 Este 11 Sudoeste 0 998.6 -0.4 97
2020-04-02 08:00:00 13.1 9 Sudoeste 11 Oeste 0 998.3 -0.9 97
2020-04-02 07:00:00 13.3 10 Sudoeste 18 Sudoeste 0 998.7 -1.3 97
2020-04-02 06:00:00 14 10 Sudoeste 17 Sudoeste 0 999 -1.5 97
2020-04-02 05:00:00 14 16 Sudoeste 22 Sur 0.9 999.2 -1.7 97
2020-04-02 04:00:00 13.5 9 Sur 13 Sudoeste 0 1000 -1.3 97
2020-04-02 03:00:00 14.1 10 Sur 17 Sur 0 1000.5 -1.4 97
2020-04-02 02:00:00 13.9 3 Sudoeste 11 Sudoeste 0 1000.9 -1 96
2020-04-02 01:00:00 14.4 7 Sudoeste 15 Sur 0 1001.3 -0.5 96
2020-04-02 00:00:00 14.6 10 Sur 18 Sur 0 1001.9 0.5 96
2020-04-01 23:00:00 14.5 12 Sur 18 Sur 0 1001.9 1.1 96
2020-04-01 22:00:00 14 12 Sur 18 Sur 0 1001.8 0.8 95
2020-04-01 21:00:00 14.2 11 Sur 32 Sur 0 1001.4 0.6 93
2020-04-01 20:00:00 14.9 20 Sur 32 Sur 0 1000.8 -0.2 91
2020-04-01 19:00:00 16 23 Sur 33 Sur 0 1001 0.2 86
2020-04-01 18:00:00 16.4 26 Sur 35 Sur 0 1000.8 -0.7 84
2020-04-01 17:00:00 15.9 24 Sudeste 35 Sudeste 0 1001 -1 88
2020-04-01 16:00:00 18 26 Sur 37 Sur 0 1000.8 -2.1 82
2020-04-01 15:00:00 15.4 27 Sudeste 46 Sudeste 0 1001.5 -1.9 90
2020-04-01 14:00:00 15.2 31 Sudeste 42 Sudeste 0 1002 -1.3 90
2020-04-01 13:00:00 14.8 31 Sudeste 45 Sudeste 0 1002.9 0.2 89
2020-04-01 12:00:00 14.8 25 Sudeste 42 Sudeste 0 1003.4 1.1 89
2020-04-01 11:00:00 15.3 31 Sudeste 46 Sudeste 0 1003.3 1 85
2020-04-01 10:00:00 15.1 30 Este 50 Este 0 1002.7 0.5 86
2020-04-01 09:00:00 14.2 27 Este 45 Este 0 1002.3 -0.1 87
2020-04-01 08:00:00 13.4 26 Nordeste 37 Norte 0 1002.3 -0.2 88
2020-04-01 07:00:00 13.2 26 Este 37 Norte 0 1002.2 -0.4 88
2020-04-01 06:00:00 13 24 Nordeste 35 Este 0 1002.4 -0.5 88
2020-04-01 05:00:00 13.1 24 Nordeste 37 Este 0 1002.5 -0.7 89
2020-04-01 04:00:00 13.2 30 Nordeste 41 Norte 0 1002.6 -0.7 90
2020-04-01 03:00:00 13.2 28 Nordeste 42 Este 0 1002.9 -0.7 90
2020-04-01 02:00:00 13.1 29 Este 41 Este 0 1003.2 0.2 89
2020-04-01 01:00:00 13.2 26 Nordeste 41 Este 0 1003.3 0.7 88
2020-04-01 00:00:00 12.9 27 Este 41 Este 0 1003.6 1.1 87
2020-03-31 23:00:00 12.8 27 Este 45 Este 0 1003 0.9 87
2020-03-31 22:00:00 13 32 Nordeste 50 Este 0 1002.6 0.9 90
2020-03-31 21:00:00 12.9 31 Este 46 Este 0 1002.5 0.5 92
2020-03-31 20:00:00 13.2 30 Este 45 Norte 0.1 1002.1 0.8 94
2020-03-31 19:00:00 13.5 30 Este 42 Este 1.7 1001.7 0 95
2020-03-31 18:00:00 13.9 23 Este 39 Este 0.3 1002 0.5 94
2020-03-31 17:00:00 14.2 25 Este 37 Este 2.2 1001.3 -0.4 93
2020-03-31 16:00:00 15.4 29 Este 50 Este 0 1001.7 -0.4 80
2020-03-31 15:00:00 17.1 35 Este 48 Este 0 1001.5 -0.9 72
2020-03-31 14:00:00 15.7 34 Este 48 Este 0 1001.7 -1 78
2020-03-31 13:00:00 16.1 35 Este 52 Este 0 1002.1 -0.3 75
2020-03-31 12:00:00 15.6 35 Este 50 Norte 0 1002.4 0.3 79
2020-03-31 11:00:00 15.6 36 Este 50 Este 0 1002.7 0.5 79
2020-03-31 10:00:00 14.9 32 Este 46 Este 0 1002.4 0.3 83
2020-03-31 09:00:00 13.7 31 Este 42 Este 0 1002.1 -0.4 87
2020-03-31 08:00:00 13 24 Este 35 Este 0 1002.2 -0.1 90
2020-03-31 07:00:00 12.9 22 Este 32 Este 0 1002.1 -0.5 91
2020-03-31 06:00:00 13 17 Este 28 Este 0.2 1002.5 -0.2 91
2020-03-31 05:00:00 13.1 19 Nordeste 28 Este 0 1002.3 -0.8 91
2020-03-31 04:00:00 13 17 Este 30 Este 0 1002.6 -0.6 91
2020-03-31 03:00:00 13 18 Nordeste 26 Norte 0 1002.7 -0.9 92
2020-03-31 02:00:00 13.3 13 Este 26 Este 0 1003.1 -0.7 93
2020-03-31 01:00:00 12.8 17 Este 24 Este 0 1003.2 -0.4 93
2020-03-31 00:00:00 12.8 13 Este 18 Este 0 1003.6 0.4 93
2020-03-30 23:00:00 12.9 13 Este 21 Este 0 1003.8 0.8 91
2020-03-30 22:00:00 12.8 13 Nordeste 22 Este 0 1003.6 0.6 91
2020-03-30 21:00:00 13 14 Nordeste 22 Este 0 1003.2 0.3 88
2020-03-30 20:00:00 13.6 16 Este 26 Este 0 1003 -0.2 84
2020-03-30 19:00:00 14.9 19 Este 28 Este 0 1003 -0.2 77
2020-03-30 18:00:00 15.7 19 Este 32 Este 0 1002.9 -0.8 72
2020-03-30 17:00:00 14.6 21 Este 30 Este 0 1003.2 -0.7 76
2020-03-30 16:00:00 15.2 22 Este 30 Este 0 1003.2 -0.8 71
2020-03-30 15:00:00 14.8 19 Este 30 Este 0 1003.7 -0.6 72
2020-03-30 14:00:00 14 18 Este 28 Nordeste 0 1003.9 -0.3 74
2020-03-30 13:00:00 14.8 18 Este 26 Este 0 1004 0.3 70
2020-03-30 12:00:00 14.2 15 Este 24 Sudeste 0 1004.3 0.9 74
2020-03-30 11:00:00 15.3 14 Este 21 Este 0 1004.2 1.2 79
2020-03-30 10:00:00 14.8 13 Este 18 Este 0 1003.7 1 84
2020-03-30 09:00:00 13.6 8 Este -- -- 0 1003.4 0.4 88
2020-03-30 08:00:00 10 11 Este -- -- 0 1003 -0.2 91
2020-03-30 07:00:00 9.2 10 Este 11 Este 0 1002.7 -0.7 92
2020-03-30 06:00:00 7.6 0 Calma 11 Norte 0 1003 -0.8 92
2020-03-30 05:00:00 8.7 9 Norte 21 Norte 0 1003.2 -1 94
2020-03-30 04:00:00 8.4 9 Oeste 13 Oeste 0 1003.4 -1 94
2020-03-30 03:00:00 9.7 8 Norte 15 Noroeste 0 1003.8 -0.8 94
2020-03-30 02:00:00 9.5 8 Oeste 15 Norte 0 1004.2 -0.5 93
2020-03-30 01:00:00 10.4 5 Oeste 15 Oeste 0 1004.4 -0.3 91
2020-03-30 00:00:00 11.7 8 Oeste 15 Oeste 0 1004.6 0.2 92
2020-03-29 23:00:00 10.1 9 Sudoeste 13 Sudoeste 0 1004.7 0.7 90
2020-03-29 22:00:00 10.9 0 Calma 9 Oeste 0 1004.7 1 88
2020-03-29 21:00:00 12.2 4 Noroeste 9 Oeste 0 1004.4 0.8 84
2020-03-29 20:00:00 14.9 7 Oeste 18 Sudoeste 0 1004 0 75
2020-03-29 19:00:00 17.1 14 Sudoeste 30 Oeste 0 1003.7 -0.7 61
2020-03-29 18:00:00 17.9 14 Oeste 37 Oeste 0 1003.6 -1.3 52
2020-03-29 17:00:00 19.5 9 Norte 24 Norte 0 1004 -1.4 32
2020-03-29 16:00:00 19.4 13 Norte 35 Norte 0 1004.4 -1.1 36
2020-03-29 15:00:00 19.1 20 Norte 30 Norte 0 1004.9 -0.6 35
2020-03-29 14:00:00 17.1 13 Noroeste 26 Noroeste 0 1005.4 -0.2 58
2020-03-29 13:00:00 17.9 15 Noroeste 28 Norte 0 1005.5 0 52
2020-03-29 12:00:00 16.9 11 Noroeste 41 Norte 0 1005.5 0.2 56
2020-03-29 11:00:00 15.7 14 Norte 24 Noroeste 0 1005.6 0.3 66
2020-03-29 10:00:00 14.1 11 Noroeste 22 Noroeste 0 1005.5 0.3 85
2020-03-29 09:00:00 12 12 Oeste 21 Noroeste 0 1005.3 -0.2 93
2020-03-29 08:00:00 10.8 11 Oeste 21 Noroeste 0 1005.3 -0.5 96
2020-03-29 07:00:00 10.3 10 Noroeste 18 Noroeste 0 1005.2 -1.1 96
2020-03-29 06:00:00 8.9 11 Noroeste 15 Noroeste 0 1005.5 -1.3 96
2020-03-29 05:00:00 8.7 6 Noroeste 9 Noroeste 0 1005.8 -1.3 94
2020-03-29 03:00:00 9.7 6 Noroeste 11 Norte 0 1006.8 -0.2 94
2020-03-29 01:00:00 10.3 9 Norte -- -- 0 1007.1 0.2 94
2020-03-29 00:00:00 9.8 10 Noroeste 15 Norte 0 1007.2 0.6 94
2020-03-28 23:00:00 9.7 13 Norte -- -- 0 1007 0.8 94
2020-03-28 22:00:00 9.8 11 Norte 13 Norte 0 1006.9 1.1 94
2020-03-28 21:00:00 10.2 9 Norte 13 Norte 0 1006.6 1.1 93
2020-03-28 20:00:00 10.7 10 Norte 13 Norte 0 1006.2 0.9 91
2020-03-28 19:00:00 12.2 12 Norte 18 Norte 0 1005.8 0.4 87
2020-03-28 18:00:00 13.6 16 Norte 24 Norte 0 1005.5 0.2 83
2020-03-28 17:00:00 13.5 10 Noroeste 18 Noroeste 0 1005.3 -0.3 85
2020-03-28 16:00:00 11.8 9 Noroeste 28 Noroeste 1.4 1005.4 -0.2 85
2020-03-28 15:00:00 15.1 17 Norte 28 Norte 0 1005.3 -0.6 68
2020-03-28 14:00:00 15.1 15 Norte 33 Norte 0 1005.6 -0.1 76
2020-03-28 13:00:00 15.8 21 Norte 30 Norte 0 1005.6 0.2 71
2020-03-28 12:00:00 14.4 21 Norte 32 Norte 0 1005.9 1.2 74
2020-03-28 11:00:00 14.8 18 Nordeste 28 Norte 0 1005.7 1.3 71
2020-03-28 10:00:00 14.6 17 Norte 28 Norte 0 1005.4 1.8 76
2020-03-28 09:00:00 13.7 17 Norte 32 Norte 0 1004.7 1.3 79
2020-03-28 08:00:00 11.9 19 Norte 28 Norte 0 1004.4 1.1 85
2020-03-28 07:00:00 10.2 12 Norte 21 Norte 0 1003.6 0.1 93
2020-03-28 06:00:00 10.3 15 Norte 24 Norte 0 1003.4 -0.4 94
2020-03-28 05:00:00 9.6 14 Norte 21 Norte 0 1003.3 -0.7 93
2020-03-28 04:00:00 10 13 Norte 22 Norte 0 1003.5 -0.6 90
2020-03-28 03:00:00 9.5 11 Norte 21 Norte 0 1003.8 -0.5 90
2020-03-28 02:00:00 9.5 13 Norte 24 Norte 0 1004 -0.4 90
2020-03-28 01:00:00 9.2 18 Norte 22 Norte 0 1004.1 -0.1 93
2020-03-28 00:00:00 9.8 17 Norte 21 Norte 0 1004.3 0.4 93
2020-03-27 23:00:00 9.7 17 Norte 22 Norte 0.1 1004.4 0.8 94
2020-03-27 22:00:00 9.5 13 Norte 24 Norte 0.2 1004.2 1.1 95
2020-03-27 21:00:00 9.5 16 Norte 24 Norte 0.1 1003.9 1.1 94
2020-03-27 20:00:00 9.5 14 Norte 24 Norte 0 1003.6 1.4 92
2020-03-27 19:00:00 9.7 9 Norte 26 Nordeste 0.2 1003.1 1 91
2020-03-27 18:00:00 11.5 23 Nordeste 32 Nordeste 0 1002.8 0.8 74
2020-03-27 17:00:00 12.1 12 Norte 28 Norte 0 1002.2 0.2 64
2020-03-27 16:00:00 13.7 25 Norte 37 Norte 0 1002.1 -0.1 59
2020-03-27 15:00:00 13 22 Norte 41 Norte 0 1002 -0.4 64
2020-03-27 14:00:00 14.4 23 Noroeste 41 Noroeste 0 1002 -0.4 57
2020-03-27 13:00:00 14 23 Norte 45 Norte 0 1002.2 0.1 51
2020-03-27 12:00:00 14.4 23 Noroeste 41 Norte 0 1002.4 0.5 50
2020-03-27 11:00:00 13.2 20 Noroeste 39 Norte 0 1002.4 0.8 57
2020-03-27 10:00:00 13.3 18 Noroeste 35 Noroeste 0 1002.1 1 52
2020-03-27 09:00:00 11.8 16 Norte 24 Norte 0 1001.9 0.9 62
2020-03-27 08:00:00 9.1 9 Noroeste 18 Norte 0 1001.6 0.9 71
2020-03-27 07:00:00 5.4 11 Noroeste 17 Norte 0 1001.1 0.8 77
2020-03-27 06:00:00 6 14 Norte 17 Norte 0 1001 0.6 76
2020-03-27 05:00:00 7.2 13 Norte 21 Norte 0 1000.7 0.2 77
2020-03-27 04:00:00 8.1 13 Nordeste 33 Nordeste 0 1000.3 -0.1 79
2020-03-27 03:00:00 6.5 13 Norte 22 Nordeste 0 1000.4 0 77
2020-03-27 02:00:00 8.6 17 Nordeste 33 Nordeste 0 1000.5 0.4 69
2020-03-27 01:00:00 9.3 21 Nordeste 32 Nordeste 0 1000.4 0.8 67
2020-03-27 00:00:00 9.3 20 Nordeste 39 Este 0 1000.4 1.2 65
2020-03-26 23:00:00 9.1 23 Nordeste 37 Nordeste 0 1000.1 1.5 66
2020-03-26 22:00:00 9.1 22 Nordeste 45 Nordeste 0 999.6 1.6 72
2020-03-26 21:00:00 9.1 24 Nordeste 42 Este 0.7 999.2 1.8 79
2020-03-26 20:00:00 8.3 27 Este 39 Norte 0.8 998.6 1.5 88
2020-03-26 19:00:00 8.2 15 Este 41 Este 1.1 998 1.1 91
2020-03-26 18:00:00 9 20 Este 41 Nordeste 0 997.4 0.4 83
2020-03-26 17:00:00 10.2 25 Este 37 Este 0 997.1 0 71
2020-03-26 16:00:00 10.4 21 Este 33 Sudeste 0 996.9 -0.4 75
2020-03-26 15:00:00 10.6 23 Este 33 Este 0 997 -0.7 71
2020-03-26 14:00:00 10.8 23 Este 33 Este 0 997.1 -1.1 71
2020-03-26 13:00:00 11.3 24 Este 33 Sudeste 0 997.3 -1.1 71
2020-03-26 12:00:00 10.9 20 Este 33 Este 0 997.7 -1 72
2020-03-26 11:00:00 10.4 23 Este 35 Este 0 998.2 -0.8 78
2020-03-26 10:00:00 9.2 21 Este 30 Este 0 998.4 -0.6 85
2020-03-26 09:00:00 7.5 14 Este 18 Este 0.8 998.7 -0.4 93
2020-03-26 08:00:00 6.3 13 Este 33 Noroeste 4.2 999 -0.8 95
2020-03-26 07:00:00 7.7 12 Sudeste 24 Oeste 0.6 999 -1.6 86
2020-03-26 06:00:00 7 10 Sudeste 17 Sudeste 0 999.1 -2.5 81
2020-03-26 05:00:00 6.2 10 Sudeste 13 Sudeste 0 999.8 -2.5 79
2020-03-26 04:00:00 6 7 Este -- -- 0 1000.6 -2.4 82
2020-03-26 03:00:00 2.7 6 Nordeste 8 Este 0 1001.6 -2.1 87
2020-03-26 02:00:00 4.1 5 Nordeste -- -- 0 1002.3 -1.9 84
2020-03-26 01:00:00 3.5 3 Nordeste 9 Este 0 1003 -1.4 78
2020-03-26 00:00:00 3.9 6 Norte 11 Norte 0 1003.7 -0.8 78
2020-03-25 23:00:00 5 9 Noroeste 15 Norte 0 1004.2 -0.4 78
2020-03-25 22:00:00 4.7 13 Norte 15 Norte 0 1004.4 -0.1 77
2020-03-25 21:00:00 7.4 12 Nordeste 24 Nordeste 0 1004.5 0 67
2020-03-25 20:00:00 8.6 20 Nordeste 30 Nordeste 0 1004.6 0.2 63
2020-03-25 19:00:00 9.3 21 Nordeste 30 Nordeste 0 1004.5 0.3 49
2020-03-25 18:00:00 10 23 Nordeste 46 Nordeste 0 1004.5 0.2 47
2020-03-25 17:00:00 11.8 26 Nordeste 46 Norte 0 1004.4 -0.2 45
2020-03-25 16:00:00 12.7 25 Nordeste 45 Norte 0 1004.2 -0.7 40
2020-03-25 15:00:00 13 32 Nordeste 46 Norte 0 1004.3 -0.6 34
2020-03-25 14:00:00 13.5 34 Nordeste 46 Nordeste 0 1004.6 -0.6 35
2020-03-25 13:00:00 12.5 28 Nordeste 45 Nordeste 0 1004.9 -0.5 38
2020-03-25 12:00:00 14 23 Nordeste 39 Nordeste 0 1004.9 -0.3 35
2020-03-25 11:00:00 11.2 12 Nordeste 28 Nordeste 0 1005.2 0.1 59
2020-03-25 10:00:00 11.9 18 Nordeste 35 Norte 0 1005.4 0.6 53
2020-03-25 09:00:00 10.4 22 Nordeste 37 Nordeste 0 1005.2 0.6 56
2020-03-25 08:00:00 10.1 26 Nordeste 35 Este 0.1 1005.1 0.3 60
2020-03-25 07:00:00 8.6 23 Nordeste 41 Nordeste 0 1004.8 -0.2 70
2020-03-25 06:00:00 8 35 Nordeste 58 Nordeste 0 1004.6 -0.7 73
2020-03-25 05:00:00 9.7 29 Nordeste 50 Nordeste 0 1004.8 -0.9 59
2020-03-25 04:00:00 8.9 19 Este 35 Este 0 1005 -1.1 54
2020-03-25 03:00:00 9.4 27 Este 42 Este 0 1005.3 -1.1 50
2020-03-25 02:00:00 10 26 Este 48 Este 0 1005.7 -0.9 50
2020-03-25 01:00:00 10.3 29 Este 45 Este 0 1006.1 -0.6 48
2020-03-25 00:00:00 10.7 30 Este 48 Este 0 1006.4 -0.4 50
2020-03-24 23:00:00 10.8 32 Este 45 Este 0 1006.6 0.2 55
2020-03-24 22:00:00 10.9 31 Este 48 Este 0 1006.7 0.4 56
2020-03-24 21:00:00 11.1 31 Este 45 Nordeste 0 1006.8 0.6 57
2020-03-24 20:00:00 11 26 Nordeste 45 Este 0 1006.4 0.1 57
2020-03-24 19:00:00 11.2 28 Nordeste 50 Nordeste 0 1006.3 -0.2 58
2020-03-24 18:00:00 12.2 33 Nordeste 54 Este 0 1006.2 -0.8 52
2020-03-24 17:00:00 13.4 35 Este 52 Este 0 1006.3 -1.2 50
2020-03-24 16:00:00 13.8 35 Este 55 Nordeste 0 1006.5 -1.4 50
2020-03-24 15:00:00 14.8 34 Este 54 Este 0 1007 -1.2 47
2020-03-24 14:00:00 14.9 37 Este 52 Norte 0 1007.5 -0.4 47
2020-03-24 13:00:00 14.6 34 Este 50 Este 0 1007.9 0.1 59
2020-03-24 12:00:00 13.3 30 Este 50 Este 0 1008.2 0.5 69
2020-03-24 11:00:00 14.2 37 Este 52 Este 0 1007.9 0.3 58
2020-03-24 10:00:00 14.4 36 Este 52 Este 0 1007.8 0.7 68
2020-03-24 09:00:00 13.1 31 Este 46 Este 0 1007.7 0.5 78
2020-03-24 08:00:00 13 25 Este 45 Nordeste 0 1007.6 0.3 83
2020-03-24 07:00:00 12.3 29 Nordeste 41 Nordeste 0 1007.1 -0.2 86
2020-03-24 06:00:00 12.6 25 Nordeste 41 Nordeste 0 1007.2 -0.2 79
2020-03-24 05:00:00 12.8 30 Nordeste 46 Este 0 1007.3 -0.6 78
2020-03-24 04:00:00 12.6 24 Este 41 Nordeste 0 1007.3 -0.9 81
2020-03-24 03:00:00 13 25 Este 37 Este 0 1007.4 -1 83
2020-03-24 02:00:00 13.4 22 Este 37 Este 0 1007.9 -0.6 85
2020-03-24 01:00:00 13.3 24 Este 33 Este 0 1008.2 -0.1 84
2020-03-24 00:00:00 13.6 24 Este 33 Este 0 1008.4 -0.1 84
2020-03-23 23:00:00 13.6 23 Este 35 Norte 0 1008.5 0 86
2020-03-23 22:00:00 14 21 Este 35 Nordeste 0 1008.3 0.4 88
2020-03-23 21:00:00 13.8 18 Este 32 Este 0 1008.5 1.3 85
2020-03-23 20:00:00 13.8 19 Nordeste 28 Este 0 1008.5 1.4 85
2020-03-23 19:00:00 14 19 Nordeste 35 Nordeste 0 1007.9 0.6 81
2020-03-23 18:00:00 15.3 27 Nordeste 35 Nordeste 0 1007.2 -0.4 77
2020-03-23 17:00:00 16.3 23 Nordeste 39 Nordeste 0 1007.1 -0.8 72
2020-03-23 16:00:00 17.2 24 Nordeste 33 Nordeste 0 1007.3 -1.1 67
2020-03-23 15:00:00 17.7 18 Nordeste 28 Nordeste 0 1007.6 -0.6 63
2020-03-23 14:00:00 17.8 20 Este 32 Nordeste 0 1007.9 -0.3 64
2020-03-23 13:00:00 17.4 15 Este 26 Este 0 1008.4 0.2 67
2020-03-23 12:00:00 17.6 14 Este 24 Este 0 1008.2 0.5 68
2020-03-23 11:00:00 16.4 15 Este 24 Este 0 1008.2 0.9 75
2020-03-23 10:00:00 15.8 14 Este 21 Este 0 1008.2 1.4 81
2020-03-23 09:00:00 14.8 12 Este 17 Este 0 1007.7 1.4 92
2020-03-23 08:00:00 13.1 8 Este -- -- 0 1007.3 1.2 97
2020-03-23 07:00:00 10.3 8 Este -- -- 0 1006.8 0.9 97
2020-03-23 06:00:00 10.8 9 Este 11 Este 0 1006.3 0.4 97
2020-03-23 05:00:00 10.7 10 Este 13 Norte 0 1006.1 0.2 96
2020-03-23 04:00:00 11.3 10 Este 11 Este 0 1005.9 -0.2 96
2020-03-23 03:00:00 12.3 10 Este 15 Sudeste 0 1005.9 -0.3 95
2020-03-23 02:00:00 12.1 11 Sudeste 18 Sudeste 0 1005.9 -0.2 94
2020-03-23 01:00:00 12.3 12 Sudeste 17 Sudeste 0 1006.1 0.3 94
2020-03-23 00:00:00 12.9 14 Sudeste 21 Sudeste 0 1006.2 0.9 94
2020-03-22 23:00:00 13.2 14 Sudeste 18 Sudeste 0 1006.1 1.2 94
2020-03-22 22:00:00 13.4 13 Sudeste 21 Sudeste 0 1005.8 1.6 94
2020-03-22 21:00:00 13.2 9 Este 18 Este 0 1005.3 1.5 94
2020-03-22 20:00:00 13.5 12 Este 21 Sudeste 0 1004.9 1.7 94
2020-03-22 19:00:00 13.6 12 Sudeste 26 Sur 0.6 1004.2 1.1 94
2020-03-22 18:00:00 13.9 17 Sur 32 Sur 0.9 1003.8 1 93
2020-03-22 17:00:00 14.4 20 Sudeste 30 Sudeste 0 1003.2 0.2 90
2020-03-22 16:00:00 15.3 21 Sur 35 Sur 0 1003.1 0.1 81
2020-03-22 15:00:00 16.4 25 Sur 37 Sur 0 1002.8 -0.4 77
2020-03-22 14:00:00 16.5 25 Sur 35 Sudeste 0 1003 0.1 76
2020-03-22 13:00:00 16.4 25 Sur 39 Sudeste 0 1003 0.5 77
2020-03-22 12:00:00 16.1 28 Sudeste 39 Sudeste 0 1003.2 1.3 79
2020-03-22 11:00:00 16 27 Sudeste 37 Sudeste 0 1002.9 1.3 79
2020-03-22 10:00:00 15.1 22 Sudeste 37 Sudeste 0 1002.5 1.1 85
2020-03-22 09:00:00 15.2 22 Sudeste 32 Sudeste 0 1001.9 0.6 85
2020-03-22 08:00:00 14.3 17 Este 24 Este 0 1001.6 0.5 90
2020-03-22 07:00:00 12.2 12 Nordeste 21 Este 0 1001.4 0.1 94
2020-03-22 06:00:00 12.3 14 Este 28 Este 0 1001.3 0 93
2020-03-22 05:00:00 12.4 20 Este 28 Este 0 1001.1 -0.6 93
2020-03-22 04:00:00 12.8 18 Este 26 Norte 0 1001.3 -0.5 93
2020-03-22 03:00:00 13.8 7 Sur 15 Sur 0 1001.3 -0.9 95
2020-03-22 02:00:00 13.9 10 Sur 26 Sur 0 1001.7 -0.6 95
2020-03-22 01:00:00 14 14 Sur 24 Sur 0 1001.8 -0.5 95
2020-03-22 00:00:00 13.8 8 Sudeste 21 Este 1.9 1002.2 0 95
2020-03-21 23:00:00 14.1 12 Este 17 Norte 0 1002.3 0.5 92
2020-03-21 22:00:00 14 13 Este 22 Este 0 1002.3 0.9 92
2020-03-21 21:00:00 14.3 14 Este 22 Este 0 1002.2 1 91
2020-03-21 20:00:00 14.2 15 Este 24 Este 0 1001.8 0.5 90
2020-03-21 19:00:00 14.5 18 Este 28 Este 0 1001.4 0.1 87
2020-03-21 18:00:00 14.6 15 Nordeste 26 Nordeste 0 1001.2 -0.3 84
2020-03-21 17:00:00 15.6 19 Nordeste 28 Este 0 1001.3 -0.6 77
2020-03-21 16:00:00 16.2 19 Nordeste 32 Este 0 1001.3 -0.9 75
2020-03-21 15:00:00 16.2 22 Nordeste 37 Este 0 1001.5 -1.1 72
2020-03-21 14:00:00 17.4 23 Nordeste 35 Nordeste 0 1001.9 -1 66
2020-03-21 13:00:00 18 29 Este 39 Este 0 1002.2 -0.8 59
2020-03-21 12:00:00 16.9 26 Este 37 Este 0 1002.6 -0.5 67
2020-03-21 11:00:00 17 23 Este 35 Este 0 1002.9 -0.3 68
2020-03-21 10:00:00 16.1 25 Este 33 Este 0 1003 0.2 75
2020-03-21 09:00:00 15.2 17 Este 24 Este 0 1003.1 0.3 85
2020-03-21 08:00:00 14 11 Este 22 Este 0 1003.2 0.4 89
2020-03-21 07:00:00 13.6 12 Nordeste 22 Este 0 1002.8 -0.3 91
2020-03-21 06:00:00 13.9 16 Este 24 Este 0 1002.8 -0.7 91
2020-03-21 05:00:00 13.9 11 Este 28 Nordeste 0 1002.8 -1.5 92
2020-03-21 04:00:00 13.8 15 Nordeste 26 Nordeste 0 1003.1 -2 92
2020-03-21 03:00:00 13.5 18 Nordeste 28 Este 0 1003.5 -2.3 92
2020-03-21 02:00:00 13.3 19 Nordeste 28 Este 0 1004.3 -2 88
2020-03-21 01:00:00 13.2 17 Nordeste 26 Nordeste 0 1005.1 -1.6 84
2020-03-21 00:00:00 12.9 15 Nordeste 30 Este 0 1005.8 -1.1 86
2020-03-20 23:00:00 13 17 Nordeste 28 Nordeste 0 1006.3 -0.3 88
2020-03-20 22:00:00 13.3 19 Nordeste 28 Nordeste 0 1006.7 0.2 87
2020-03-20 21:00:00 13.1 14 Nordeste 28 Este 0 1006.9 0.1 83
2020-03-20 20:00:00 13.4 19 Nordeste 32 Nordeste 0 1006.6 -0.4 83
2020-03-20 19:00:00 13.8 22 Nordeste 35 Nordeste 0 1006.5 -0.7 81
2020-03-20 18:00:00 14.8 26 Nordeste 39 Nordeste 0 1006.8 -0.5 74
2020-03-20 17:00:00 15.6 28 Este 39 Este 0 1007 -0.7 71
2020-03-20 16:00:00 15.8 27 Este 39 Este 0 1007.2 -1 71
2020-03-20 15:00:00 16.1 30 Nordeste 41 Este 0 1007.3 -1.3 68
2020-03-20 14:00:00 17.4 30 Este 46 Norte 0 1007.7 -1.4 61
2020-03-20 13:00:00 16.6 29 Este 46 Este 0 1008.2 -1.1 66
2020-03-20 12:00:00 16.5 30 Este 42 Nordeste 0 1008.6 -0.5 63
2020-03-20 11:00:00 17.6 30 Este 45 Este 0 1009.1 0.3 55
2020-03-20 10:00:00 16.2 30 Nordeste 42 Este 0 1009.3 0.6 59
2020-03-20 09:00:00 15.2 28 Nordeste 39 Este 0 1009.1 0.4 65
2020-03-20 08:00:00 13.6 22 Este 32 Este 0 1008.8 0 72
2020-03-20 07:00:00 11.8 15 Este 26 Este 0 1008.7 -0.2 87
2020-03-20 06:00:00 11.6 13 Este 21 Este 0 1008.7 -0.6 88
2020-03-20 05:00:00 11.8 14 Este 21 Este 0 1008.8 -1 87
2020-03-20 04:00:00 12.1 13 Este 21 Este 0 1008.9 -1.3 87
2020-03-20 03:00:00 12.1 14 Este 21 Norte 0 1009.3 -1.5 86
2020-03-20 02:00:00 11 14 Este 18 Este 0 1009.8 -1.2 90
2020-03-20 01:00:00 10.2 11 Este 13 Norte 0 1010.2 -0.8 91
2020-03-20 00:00:00 11.1 9 Este -- -- 0 1010.8 0 90
2020-03-19 23:00:00 11.2 10 Este 13 Este 0 1011 0.1 89
2020-03-19 22:00:00 11.8 10 Este 17 Nordeste 0 1011 0.2 88
2020-03-19 21:00:00 12.1 10 Nordeste 18 Nordeste 0 1010.8 -0.2 86
2020-03-19 20:00:00 12.3 11 Nordeste 15 Nordeste 0 1010.9 -0.2 86
2020-03-19 19:00:00 13.1 11 Nordeste 21 Nordeste 0 1010.8 -0.8 82
2020-03-19 18:00:00 14.7 15 Este 26 Este 0 1011 -0.9 76
2020-03-19 17:00:00 16 18 Nordeste 28 Este 0 1011.1 -1.5 69
2020-03-19 16:00:00 16.9 18 Nordeste 30 Este 0 1011.6 -1.5 63
2020-03-19 15:00:00 16.7 18 Este 30 Este 0 1011.9 -1.5 59
2020-03-19 14:00:00 17.4 17 Este 26 Este 0 1012.6 -1.2 58
2020-03-19 13:00:00 16.9 15 Nordeste 24 Este 0 1013.1 -0.8 60
2020-03-19 12:00:00 15.4 16 Nordeste 24 Nordeste 0 1013.4 -0.1 65
2020-03-19 11:00:00 15.7 15 Nordeste 24 Este 0 1013.8 0.7 65
2020-03-19 10:00:00 15.2 14 Este 24 Este 0 1013.9 0.8 70
2020-03-19 09:00:00 14.4 16 Este 24 Este 0 1013.5 0.3 77
2020-03-19 08:00:00 11.9 13 Este 17 Este 0 1013.1 0 92
2020-03-19 07:00:00 9.2 14 Nordeste 17 Este 0 1013.1 -0.1 96
2020-03-19 06:00:00 10.6 11 Nordeste 15 Nordeste 0 1013.2 -0.5 96
2020-03-19 05:00:00 10.1 12 Nordeste 17 Nordeste 0 1013.1 -1.1 98
2020-03-19 04:00:00 9.1 14 Norte 17 Norte 0 1013.2 -1.2 96
2020-03-19 03:00:00 10.5 13 Nordeste 15 Nordeste 0 1013.7 -1 97
2020-03-19 02:00:00 10.4 9 Nordeste 13 Nordeste 0 1014.2 -0.7 96
2020-03-19 01:00:00 10.9 13 Nordeste 13 Nordeste 0 1014.4 -0.6 96
2020-03-19 00:00:00 11.6 12 Nordeste 15 Nordeste 0 1014.7 -0.1 96
2020-03-18 23:00:00 11.8 13 Nordeste -- -- 0 1014.9 0.2 95
2020-03-18 22:00:00 11.7 12 Nordeste 13 Nordeste 0 1015 0.5 95
2020-03-18 21:00:00 12.2 12 Nordeste 15 Nordeste 0 1014.8 0.6 93
2020-03-18 20:00:00 13.1 12 Este 21 Este 0 1014.7 0.4 92
2020-03-18 19:00:00 13.7 14 Este 22 Nordeste 0 1014.5 -0.1 90
2020-03-18 18:00:00 14.4 16 Este 24 Este 0 1014.2 -0.6 88
2020-03-18 17:00:00 14.8 18 Este 26 Este 0 1014.3 -1.1 86
2020-03-18 16:00:00 15.2 18 Nordeste 26 Este 0 1014.6 -1.4 82
2020-03-18 15:00:00 15.6 18 Nordeste 26 Nordeste 0 1014.8 -1.5 81
2020-03-18 14:00:00 15.8 18 Este 28 Nordeste 0 1015.4 -0.9 80
2020-03-18 13:00:00 16.1 19 Nordeste 26 Este 0 1016 -0.2 80
2020-03-18 12:00:00 15.9 18 Nordeste 30 Nordeste 0 1016.3 0.3 81
2020-03-18 11:00:00 15.4 19 Nordeste 28 Nordeste 0 1016.3 0.6 84
2020-03-18 10:00:00 15.1 18 Nordeste 24 Nordeste 0 1016.2 0.6 86
2020-03-18 09:00:00 14.4 18 Nordeste 24 Nordeste 0 1016 0.4 90
2020-03-18 08:00:00 13.3 14 Este 21 Este 0 1015.7 0.2 94
2020-03-18 07:00:00 13 14 Nordeste 21 Nordeste 0 1015.6 0.1 95
2020-03-18 06:00:00 12.9 15 Nordeste 22 Nordeste 0 1015.6 -0.2 95
2020-03-18 05:00:00 13.2 15 Nordeste 22 Nordeste 0 1015.5 -0.7 95
2020-03-18 04:00:00 13.3 17 Nordeste 26 Nordeste 0 1015.5 -0.8 94
2020-03-18 03:00:00 13.4 20 Nordeste 30 Este 0 1015.8 -0.7 93
2020-03-18 02:00:00 13.4 22 Nordeste 32 Nordeste 0 1016.2 -0.6 92
2020-03-18 01:00:00 13.5 22 Nordeste 32 Nordeste 0 1016.3 -0.4 91
2020-03-18 00:00:00 13.5 22 Nordeste 32 Nordeste 0 1016.5 -0.1 90
2020-03-17 23:00:00 13.5 19 Nordeste 28 Nordeste 0 1016.8 0.5 91
2020-03-17 22:00:00 13.5 20 Nordeste 30 Nordeste 0 1016.7 0.9 91
2020-03-17 21:00:00 13.6 20 Nordeste 32 Nordeste 0 1016.6 1.1 90
2020-03-17 20:00:00 13.8 20 Nordeste 33 Este 0 1016.3 0.9 90
2020-03-17 19:00:00 14.1 24 Nordeste 35 Nordeste 0 1015.8 0.4 90
2020-03-17 18:00:00 14.6 26 Este 41 Este 0 1015.5 0.3 84
2020-03-17 17:00:00 14.9 28 Nordeste 46 Este 0 1015.4 0.2 83
2020-03-17 16:00:00 15.1 28 Este 42 Norte 0 1015.4 -0.2 83
2020-03-17 15:00:00 15.5 28 Este 48 Este 0 1015.2 -0.5 82
2020-03-17 14:00:00 15.9 31 Nordeste 45 Este 0 1015.2 -0.3 80
2020-03-17 13:00:00 16.2 31 Este 46 Este 0 1015.6 0.5 77
2020-03-17 12:00:00 16.3 30 Este 46 Este 0 1015.7 1.6 77
2020-03-17 11:00:00 15.8 32 Este 46 Este 0 1015.5 2.4 83
2020-03-17 10:00:00 15 29 Este 46 Norte 0 1015.1 2.3 89
2020-03-17 09:00:00 14.8 30 Nordeste 50 Este 0 1014.1 2.6 90
2020-03-17 08:00:00 14.6 34 Este 52 Este 0 1013.1 1.3 92
2020-03-17 07:00:00 14.5 28 Este 41 Norte 0 1012.8 1.4 93
2020-03-17 06:00:00 14.4 29 Nordeste 39 Nordeste 0 1011.5 0 94
2020-03-17 05:00:00 14.3 22 Este 37 Este 0 1011.8 0.4 95
2020-03-17 04:00:00 14.5 23 Este 35 Este 0 1011.4 0.3 95
2020-03-17 03:00:00 14.6 19 Nordeste 30 Este 0 1011.5 0.6 94
2020-03-17 02:00:00 14.7 21 Nordeste 30 Norte 0 1011.4 0.8 93
2020-03-17 01:00:00 14.7 19 Este 30 Norte 0 1011.1 1 93
2020-03-17 00:00:00 14.7 18 Este 39 Este 0 1010.9 1.4 92
2020-03-16 23:00:00 14.8 21 Este 32 Este 0 1010.6 1.8 91
2020-03-16 22:00:00 14.8 21 Este 32 Este 0 1010.1 2.5 89
2020-03-16 21:00:00 14.6 21 Este 33 Este 0 1009.5 2.7 90
2020-03-16 20:00:00 14.8 19 Este 37 Este 0 1008.8 2.3 90
2020-03-16 19:00:00 14.8 24 Este 41 Este 0 1007.6 1.9 88
2020-03-16 18:00:00 15.6 28 Este 37 Este 0 1006.8 1.6 84
2020-03-16 17:00:00 15.9 27 Este 45 Este 0 1006.5 0.9 82
2020-03-16 16:00:00 15.9 33 Este 55 Este 0 1005.7 -0.3 82
2020-03-16 15:00:00 16 35 Este 55 Este 0 1005.2 -0.8 82
2020-03-16 14:00:00 16.1 32 Este 50 Sudeste 0 1005.6 -0.1 82
2020-03-16 13:00:00 15.5 33 Sudeste 50 Este 0 1006 1 84
2020-03-16 12:00:00 15.3 34 Sudeste 54 Sudeste 0 1006 0.8 86
2020-03-16 11:00:00 15.2 32 Sudeste 54 Este 0 1005.7 1 86
2020-03-16 10:00:00 15 37 Sudeste 54 Este 0 1005 1.1 86
2020-03-16 09:00:00 14.5 32 Sudeste 48 Sudeste 0 1005.2 1.2 89
2020-03-16 08:00:00 14.3 30 Sudeste 48 Este 0 1004.7 0.9 90
2020-03-16 07:00:00 13.9 26 Este 39 Este 0 1003.9 0.2 91
2020-03-16 06:00:00 13.8 22 Este 42 Este 0 1004 -0.5 92
2020-03-16 05:00:00 13.5 25 Este 39 Este 0 1003.8 -1.8 92
2020-03-16 04:00:00 13.2 27 Este 37 Este 0 1003.7 -2.8 93
2020-03-16 03:00:00 12.8 22 Nordeste 33 Norte 0 1004.5 -2.7 93
2020-03-16 02:00:00 11.7 16 Nordeste 21 Norte 0 1005.6 -1.6 93
2020-03-16 01:00:00 10.8 12 Este 15 Este 0 1006.5 -0.6 92
2020-03-16 00:00:00 11.9 10 Este 18 Sudeste 0 1007.2 0.5 90
2020-03-15 23:00:00 12.2 13 Este 21 Este 0 1007.2 0.7 89
2020-03-15 22:00:00 12 14 Este 18 Este 0 1007.1 0.7 88
2020-03-15 21:00:00 11.8 14 Nordeste 21 Este 0 1006.7 0 86
2020-03-15 20:00:00 11.8 14 Este 21 Nordeste 0 1006.5 -0.7 83
2020-03-15 19:00:00 12.9 14 Este 26 Este 0 1006.4 -1.5 77
2020-03-15 18:00:00 15 16 Este 26 Norte 0 1006.7 -1.3 67
2020-03-15 17:00:00 16.3 17 Este 24 Norte 0 1007.2 -1.4 61
2020-03-15 16:00:00 17.4 16 Este 26 Este 0 1007.9 -1.5 56
2020-03-15 15:00:00 18.1 12 Este 21 Sudeste 0 1008 -2 56
2020-03-15 14:00:00 17.8 10 Este 22 Sudeste 0 1008.6 -1.5 59
2020-03-15 13:00:00 17.6 12 Sudeste 21 Este 0 1009.4 -1 63
2020-03-15 12:00:00 17.4 10 Sudeste 18 Sur 0 1010 -- 61
2020-03-15 11:00:00 16.5 7 Sudeste 15 Sudeste 0 1010.1 0.1 67
2020-03-15 10:00:00 15 5 Este 13 Este 0 1010.4 0.8 74
2020-03-15 09:00:00 -- -- -- -- -- -- -- -- --
2020-03-15 08:00:00 10.9 3 Nordeste 13 Nordeste 0 1010 0.5 97
2020-03-15 07:00:00 7.2 8 Norte -- -- 0 1009.6 -0.1 96
2020-03-15 06:00:00 7.6 -- -- -- -- 0 1009.4 -0.9 96
2020-03-15 05:00:00 7.2 7 Norte -- -- 0 1009.5 -1.1 95
2020-03-15 04:00:00 7.6 9 Norte -- -- 0 1009.7 -1.1 95
2020-03-15 03:00:00 7.3 9 Norte -- -- 0 1010.3 -0.6 95
2020-03-15 02:00:00 7.3 4 Nordeste 8 Nordeste 0 1010.6 -0.3 95
2020-03-15 01:00:00 7.9 0 Calma 5 Norte 0 1010.8 0.2 93
2020-03-15 00:00:00 8.8 6 Norte 13 Norte 0 1010.9 0.6 92
2020-03-14 23:00:00 9.7 10 Norte -- -- 0 1010.9 0.7 91
2020-03-14 22:00:00 -- -- -- -- -- 0 1010.6 0.7 --
2020-03-14 21:00:00 9.8 11 Norte 13 Norte 0 1010.3 0.5 89
2020-03-14 20:00:00 10.6 11 Norte 15 Norte 0 1010.2 0.5 85
2020-03-14 19:00:00 12.6 11 Norte 22 Norte 0 1009.9 0 76
2020-03-14 18:00:00 14.6 18 Norte 28 Norte 0 1009.8 -0.2 68
2020-03-14 17:00:00 15.2 18 Norte 33 Norte 0 1009.7 -0.5 66
2020-03-14 16:00:00 15.6 23 Norte 33 Norte 0 1009.9 -0.6 68
2020-03-14 15:00:00 15.7 27 Norte 39 Norte 0 1010 -0.7 66
2020-03-14 14:00:00 17.2 21 Norte 30 Norte 0 1010.2 -0.6 58
2020-03-14 13:00:00 16.4 17 Nordeste 37 Nordeste 0 1010.5 -0.1 56
2020-03-14 12:00:00 16.1 22 Norte 35 Norte 0 1010.7 0.7 54
2020-03-14 11:00:00 15.6 28 Norte 42 Norte 0 1010.8 2.2 50
2020-03-14 10:00:00 15 30 Nordeste 42 Nordeste 0 1010.6 2.3 56
2020-03-14 09:00:00 14.3 32 Norte 42 Norte 0 1010 1.7 61
2020-03-14 08:00:00 13 28 Norte 39 Norte 0 1008.6 0.1 72
2020-03-14 07:00:00 12.3 28 Norte 37 Norte 0 1008.3 0.1 75
2020-03-14 06:00:00 12 26 Norte 32 Norte 0 1008.3 -0.4 77
2020-03-14 05:00:00 12 15 Norte 28 Norte 0 1008.5 0.4 76
2020-03-14 04:00:00 12.7 22 Norte 35 Norte 0 1008.2 0.1 70
2020-03-14 03:00:00 12.3 14 Norte 32 Norte 0 1008.7 0.3 76
2020-03-14 02:00:00 12.6 26 Norte 37 Norte 0 1008.1 -0.4 78
2020-03-14 01:00:00 11.1 16 Norte 22 Norte 0 1008.1 0 84
2020-03-14 00:00:00 10.9 9 Norte 18 Nordeste 0 1008.4 0.5 81
2020-03-13 23:00:00 11.9 14 Nordeste 22 Nordeste 0 1008.5 0.9 81
2020-03-13 22:00:00 11.9 16 Norte 22 Norte 0 1008.1 0.9 87
2020-03-13 21:00:00 12.1 17 Norte 28 Norte 0 1007.9 0.8 87
2020-03-13 20:00:00 12.2 20 Norte 28 Norte 0 1007.6 0.5 87
2020-03-13 19:00:00 12.7 22 Norte 33 Nordeste 0 1007.2 -0.1 84
2020-03-13 18:00:00 14.6 28 Norte 41 Norte 0 1007.1 -0.5 77
2020-03-13 17:00:00 15.9 33 Norte 45 Norte 0 1007.1 -0.9 72
2020-03-13 16:00:00 16.5 35 Norte 45 Nordeste 0 1007.3 -1.5 69
2020-03-13 15:00:00 16.9 32 Nordeste 46 Norte 0 1007.6 -1.4 68
2020-03-13 14:00:00 17 37 Norte 50 Nordeste 0 1008 -1.2 69
2020-03-13 13:00:00 17.4 34 Nordeste 46 Nordeste 0 1008.8 -0.6 70
2020-03-13 12:00:00 18 32 Nordeste 52 Nordeste 0 1009 0 69
2020-03-13 11:00:00 17.2 39 Norte 54 Norte 0 1009.2 0.5 72
2020-03-13 10:00:00 16 37 Nordeste 50 Nordeste 0 1009.4 1 77
2020-03-13 09:00:00 14.6 31 Nordeste 41 Nordeste 0 1009 0.8 86
2020-03-13 08:00:00 13.2 24 Nordeste 33 Nordeste 0 1008.7 0.9 94
2020-03-13 07:00:00 12.6 24 Nordeste 33 Nordeste 0 1008.4 0.7 95
2020-03-13 06:00:00 12.5 25 Nordeste 33 Nordeste 0 1008.2 0.4 97
2020-03-13 05:00:00 12.7 23 Nordeste 30 Nordeste 0 1007.8 -0.4 99
2020-03-13 04:00:00 12.7 22 Norte 28 Norte 0 1007.7 -0.8 99
2020-03-13 03:00:00 9.7 12 Nordeste 13 Nordeste 0 1007.8 -1 97
2020-03-13 02:00:00 12.1 12 Nordeste -- -- 0 1008.2 -0.9 98
2020-03-13 01:00:00 -- -- -- -- -- 0 1008.5 -0.5 --
2020-03-13 00:00:00 12.1 10 Este -- -- 0 1008.8 -0.3 96
2020-03-12 23:00:00 12.1 -- -- -- -- 0 1009.1 0 95
2020-03-12 22:00:00 12.8 10 Sudeste 15 Sur 0 1009 0.1 93
2020-03-12 21:00:00 -- 9 Sudeste 11 Sudeste 0 1009.1 0.4 --
2020-03-12 20:00:00 13.1 9 Sudeste 13 Sudeste 0 1009.1 0.3 90
2020-03-12 19:00:00 14.7 9 Sudeste 15 Sur 0 1008.9 -0.7 80
2020-03-12 18:00:00 17.3 10 Sur 18 Sur 0 1008.7 -1.2 64
2020-03-12 17:00:00 18.7 12 Sur 21 Sur 0 1008.8 -1.8 52
2020-03-12 16:00:00 19.2 14 Sur 22 Sudoeste 0 1009.6 -1.9 52
2020-03-12 15:00:00 19.3 17 Sudoeste 26 Sur 0 1009.9 -2.1 53
2020-03-12 14:00:00 18.7 19 Sudoeste 28 Sudoeste 0 1010.6 -1.8 54
2020-03-12 13:00:00 18.7 19 Sur 28 Sur 0 1011.5 -1.1 57
2020-03-12 12:00:00 19.2 15 Sur 21 Sur 0 1012 -0.5 51
2020-03-12 11:00:00 17.7 15 Sudoeste 24 Oeste 0 1012.4 0.5 61
2020-03-12 10:00:00 16.8 15 Sudoeste 24 Sudoeste 0 1012.6 1.1 77
2020-03-12 09:00:00 15.1 13 Sudoeste 18 Sudoeste 0 1012.5 1.2 96
2020-03-12 08:00:00 13.3 13 Sudoeste 15 Sudoeste 0 1011.9 0.6 99
2020-03-12 07:00:00 12.5 12 Sudoeste 15 Sudoeste 0 1011.5 0.2 99
2020-03-12 06:00:00 12.3 11 Sur 13 Sur 0 1011.3 -0.6 99
2020-03-12 05:00:00 13.2 9 Sudoeste 13 Sudoeste 0 1011.3 -1.1 99
2020-03-12 04:00:00 13.7 8 Sudoeste 15 Sudoeste 0 1011.3 -1.3 99
2020-03-12 03:00:00 13.6 10 Sudoeste 17 Sudoeste 0 1011.9 -1.1 99
2020-03-12 02:00:00 14 12 Sudoeste 17 Sudoeste 0 1012.4 -0.6 98
2020-03-12 01:00:00 13.3 9 Sudoeste 13 Oeste 0 1012.6 -0.4 98
2020-03-12 00:00:00 13.3 10 Sudoeste 15 Sudoeste 0 1013 0 98
2020-03-11 23:00:00 13.1 12 Sudoeste 17 Sudoeste 0 1013 0.1 98
2020-03-11 22:00:00 12.8 13 Sudoeste 15 Sudoeste 0 1013 0.3 97
2020-03-11 21:00:00 13 11 Sudoeste 15 Sudoeste 0 1013 0.5 96
2020-03-11 20:00:00 13.3 10 Sudoeste 13 Sudoeste 0 1012.9 0.4 95
2020-03-11 19:00:00 14.1 10 Sudoeste 17 Sudoeste 0 1012.7 0 92
2020-03-11 18:00:00 15.5 12 Sudoeste 21 Sudoeste 0 1012.5 -0.4 88
2020-03-11 17:00:00 16.1 14 Sudoeste 24 Sur 0 1012.5 -0.7 83
2020-03-11 16:00:00 17.4 15 Sudoeste 26 Sudoeste 0 1012.7 -1.1 76
2020-03-11 15:00:00 17.9 15 Oeste 28 Oeste 0 1012.9 -1.2 74
2020-03-11 14:00:00 17.2 18 Sudoeste 26 Sudoeste 0 1013.2 -1.1 76
2020-03-11 13:00:00 17 15 Sudoeste 26 Oeste 0 1013.8 -0.3 77
2020-03-11 12:00:00 18.1 13 Sur 21 Sur 0 1014.1 0.3 68
2020-03-11 11:00:00 17.3 10 Sur 15 Sur 0 1014.3 0.8 75
2020-03-11 10:00:00 16.8 12 Sur 15 Sur 0 1014.1 0.9 80
2020-03-11 09:00:00 14.6 7 Nordeste 30 Este 0 1013.8 0.8 93
2020-03-11 08:00:00 -- -- -- -- -- 0 1013.5 0.6 --
2020-03-11 07:00:00 9.1 8 Nordeste -- -- 0 1013.2 0.5 97
2020-03-11 06:00:00 8.8 9 Norte 11 Norte 0 1013 0.2 96
2020-03-11 05:00:00 8.8 4 Norte 13 Norte 0 1012.9 -0.3 96
2020-03-11 04:00:00 10.6 8 Noroeste 13 Oeste 0 1012.7 -0.7 95
2020-03-11 03:00:00 11.7 10 Oeste 18 Oeste 0 1012.8 -0.7 94
2020-03-11 02:00:00 12.4 14 Oeste 28 Oeste 0 1013.2 -0.1 93
2020-03-11 01:00:00 12.6 15 Oeste 28 Oeste 0 1013.4 -0.2 92
2020-03-11 00:00:00 12.4 14 Oeste 22 Oeste 0 1013.5 0 92
2020-03-10 23:00:00 12.3 16 Oeste 26 Oeste 0 1013.3 -0.2 90
2020-03-10 22:00:00 10.9 10 Oeste 15 Oeste 0 1013.6 0 90
2020-03-10 21:00:00 11 9 Oeste 13 Oeste 0 1013.5 0.5 88
2020-03-10 20:00:00 10.9 9 Oeste 13 Sudoeste 0 1013.5 0.3 87
2020-03-10 19:00:00 12.3 5 Oeste 18 Sudoeste 0 1013.6 0.3 81
2020-03-10 18:00:00 14.7 14 Sudoeste 30 Sudoeste 0 1013 -0.8 71
2020-03-10 17:00:00 15.4 19 Oeste 32 Oeste 0 1013.2 -1 68
2020-03-10 16:00:00 14.5 18 Oeste 28 Oeste 0 1013.3 -1.2 70
2020-03-10 15:00:00 14.6 15 Oeste 30 Oeste 0 1013.8 -1 68
2020-03-10 14:00:00 15 22 Oeste 33 Oeste 0 1014.2 -0.4 64
2020-03-10 13:00:00 16.3 17 Noroeste 32 Norte 0 1014.5 0.1 56
2020-03-10 12:00:00 16 15 Noroeste 35 Noroeste 0 1014.8 1.1 59
2020-03-10 11:00:00 15.1 19 Norte 42 Norte 0 1014.6 1.6 64
2020-03-10 10:00:00 14.2 33 Norte 54 Norte 0 1014.4 2.3 65
2020-03-10 09:00:00 13.1 41 Norte 59 Norte 0 1013.7 1.8 68
2020-03-10 08:00:00 11.7 31 Norte 59 Norte 0 1013 1.7 70
2020-03-10 07:00:00 11 37 Norte 55 Norte 0 1012.1 1.2 69
2020-03-10 06:00:00 11 36 Norte 59 Norte 0 1011.9 1.1 66
2020-03-10 05:00:00 11.1 34 Norte 74 Norte 0 1011.3 0.6 65
2020-03-10 04:00:00 11.1 32 Norte 72 Norte 0 1010.9 0 65
2020-03-10 03:00:00 11.2 42 Norte 71 Norte 0 1010.8 -0.5 65
2020-03-10 02:00:00 11.2 38 Norte 67 Norte 0 1010.7 -0.6 65
2020-03-10 01:00:00 11.3 40 Norte 71 Norte 0 1010.9 -0.2 67
2020-03-10 00:00:00 11.9 47 Norte 65 Norte 0 1011.3 0.4 64
2020-03-09 23:00:00 11.8 33 Norte 65 Norte 0 1011.3 0.9 66
2020-03-09 22:00:00 11.8 28 Norte 48 Norte 0 1011.1 1.1 68
2020-03-09 21:00:00 11.6 20 Norte 32 Norte 0 1010.9 1.5 76
2020-03-09 20:00:00 10.9 13 Norte 22 Norte 0 1010.4 1.3 78
2020-03-09 19:00:00 11 14 Norte 32 Norte 0 1010 0.8 80
2020-03-09 18:00:00 12.3 23 Norte 37 Norte 0 1009.4 0.2 76
2020-03-09 17:00:00 10.8 17 Norte 37 Norte 0.5 1009.1 -0.2 86
2020-03-09 16:00:00 12.5 12 Norte 30 Norte 0 1009.2 -0.6 84
2020-03-09 15:00:00 11.6 14 Norte 22 Norte 0.6 1009.2 -1.2 85
2020-03-09 14:00:00 10.6 19 Norte 37 Norte 0.8 1009.3 -1.4 88
2020-03-09 13:00:00 11.9 24 Norte 39 Nordeste 0 1009.8 -0.4 80
2020-03-09 12:00:00 11.2 25 Norte 35 Norte 1 1010.4 0.5 90
2020-03-09 11:00:00 10.4 25 Norte 37 Nordeste 0.8 1010.7 1.2 93
2020-03-09 10:00:00 12.2 18 Nordeste 28 Nordeste 0.3 1010.2 1.6 90
2020-03-09 09:00:00 11.6 14 Nordeste 18 Nordeste 0 1009.9 0.9 94
2020-03-09 08:00:00 10.2 6 Noroeste 15 Sur 0 1009.5 0.3 96
2020-03-09 07:00:00 8.8 10 Este -- -- 0 1008.6 -0.7 96
2020-03-09 06:00:00 -- 11 Nordeste 13 Nordeste 0 1009 -0.8 --
2020-03-09 05:00:00 7.8 9 Noroeste 11 Noroeste 0 1009.2 -0.8 97
2020-03-09 04:00:00 9 8 Noroeste 11 Noroeste 0 1009.3 -0.9 96
2020-03-09 03:00:00 9 7 Noroeste -- -- 0 1009.8 -0.7 96
2020-03-09 02:00:00 7.7 8 Oeste -- -- 0 1010 -0.8 95
2020-03-09 01:00:00 8.2 9 Oeste -- -- 0 1010.2 -0.7 95
2020-03-09 00:00:00 9.1 7 Sudoeste 8 Sudoeste 0 1010.5 -1 94